sensor_id;sensor_type;location;lat;lon;timestamp;P1;durP1;ratioP1;P2;durP2;ratioP2
15624;SDS011;7912;51.376;6.126;2023-04-03T00:01:16;6.73;;;6.03;;
15624;SDS011;7912;51.376;6.126;2023-04-03T00:03:43;7.17;;;5.83;;
15624;SDS011;7912;51.376;6.126;2023-04-03T00:06:11;8.70;;;6.73;;
15624;SDS011;7912;51.376;6.126;2023-04-03T00:08:40;7.10;;;5.80;;
15624;SDS011;7912;51.376;6.126;2023-04-03T00:11:08;8.70;;;6.10;;
15624;SDS011;7912;51.376;6.126;2023-04-03T00:13:38;6.80;;;6.00;;
15624;SDS011;7912;51.376;6.126;2023-04-03T00:16:07;6.90;;;6.10;;
15624;SDS011;7912;51.376;6.126;2023-04-03T00:18:36;7.30;;;5.63;;
15624;SDS011;7912;51.376;6.126;2023-04-03T00:21:04;6.20;;;5.60;;
15624;SDS011;7912;51.376;6.126;2023-04-03T00:23:32;7.43;;;6.10;;
15624;SDS011;7912;51.376;6.126;2023-04-03T00:26:00;6.17;;;5.57;;
15624;SDS011;7912;51.376;6.126;2023-04-03T00:28:31;7.13;;;6.00;;
15624;SDS011;7912;51.376;6.126;2023-04-03T00:30:58;8.33;;;6.47;;
15624;SDS011;7912;51.376;6.126;2023-04-03T00:33:26;7.17;;;6.27;;
15624;SDS011;7912;51.376;6.126;2023-04-03T00:35:54;7.97;;;6.30;;
15624;SDS011;7912;51.376;6.126;2023-04-03T00:38:21;6.93;;;6.23;;
15624;SDS011;7912;51.376;6.126;2023-04-03T00:40:49;7.00;;;6.30;;
15624;SDS011;7912;51.376;6.126;2023-04-03T00:43:21;8.47;;;6.40;;
15624;SDS011;7912;51.376;6.126;2023-04-03T00:45:56;6.83;;;6.13;;
15624;SDS011;7912;51.376;6.126;2023-04-03T00:51:02;6.73;;;5.67;;
15624;SDS011;7912;51.376;6.126;2023-04-03T00:53:37;8.87;;;6.53;;
15624;SDS011;7912;51.376;6.126;2023-04-03T00:56:12;7.77;;;6.03;;
15624;SDS011;7912;51.376;6.126;2023-04-03T00:58:45;7.00;;;6.30;;
15624;SDS011;7912;51.376;6.126;2023-04-03T01:01:24;9.30;;;6.13;;
15624;SDS011;7912;51.376;6.126;2023-04-03T01:03:54;8.60;;;6.70;;
15624;SDS011;7912;51.376;6.126;2023-04-03T01:06:26;9.07;;;6.83;;
15624;SDS011;7912;51.376;6.126;2023-04-03T01:08:59;6.90;;;6.23;;
15624;SDS011;7912;51.376;6.126;2023-04-03T01:11:26;7.70;;;6.77;;
15624;SDS011;7912;51.376;6.126;2023-04-03T01:13:54;6.73;;;6.10;;
15624;SDS011;7912;51.376;6.126;2023-04-03T01:16:21;7.17;;;6.47;;
15624;SDS011;7912;51.376;6.126;2023-04-03T01:18:49;7.43;;;6.60;;
15624;SDS011;7912;51.376;6.126;2023-04-03T01:24:25;7.77;;;6.70;;
15624;SDS011;7912;51.376;6.126;2023-04-03T01:27:05;6.70;;;5.97;;
15624;SDS011;7912;51.376;6.126;2023-04-03T01:29:36;6.87;;;5.70;;
15624;SDS011;7912;51.376;6.126;2023-04-03T01:32:04;6.37;;;5.70;;
15624;SDS011;7912;51.376;6.126;2023-04-03T01:34:32;7.53;;;6.17;;
15624;SDS011;7912;51.376;6.126;2023-04-03T01:37:00;6.53;;;5.50;;
15624;SDS011;7912;51.376;6.126;2023-04-03T01:39:27;7.00;;;6.40;;
15624;SDS011;7912;51.376;6.126;2023-04-03T01:41:54;7.97;;;6.10;;
15624;SDS011;7912;51.376;6.126;2023-04-03T01:44:21;7.30;;;5.80;;
15624;SDS011;7912;51.376;6.126;2023-04-03T01:46:49;6.27;;;5.60;;
15624;SDS011;7912;51.376;6.126;2023-04-03T01:49:16;6.93;;;6.23;;
15624;SDS011;7912;51.376;6.126;2023-04-03T01:51:44;7.37;;;6.20;;
15624;SDS011;7912;51.376;6.126;2023-04-03T01:54:11;6.33;;;5.73;;
15624;SDS011;7912;51.376;6.126;2023-04-03T01:56:41;7.60;;;5.67;;
15624;SDS011;7912;51.376;6.126;2023-04-03T01:59:08;8.30;;;6.20;;
15624;SDS011;7912;51.376;6.126;2023-04-03T02:01:36;7.60;;;6.77;;
15624;SDS011;7912;51.376;6.126;2023-04-03T02:04:06;8.67;;;6.63;;
15624;SDS011;7912;51.376;6.126;2023-04-03T02:06:33;7.00;;;6.30;;
15624;SDS011;7912;51.376;6.126;2023-04-03T02:14:38;8.40;;;7.50;;
15624;SDS011;7912;51.376;6.126;2023-04-03T02:17:05;8.50;;;7.17;;
15624;SDS011;7912;51.376;6.126;2023-04-03T02:19:35;7.50;;;6.40;;
15624;SDS011;7912;51.376;6.126;2023-04-03T02:22:03;6.97;;;6.27;;
15624;SDS011;7912;51.376;6.126;2023-04-03T02:24:32;7.00;;;6.30;;
15624;SDS011;7912;51.376;6.126;2023-04-03T02:26:59;6.37;;;5.77;;
15624;SDS011;7912;51.376;6.126;2023-04-03T02:29:27;6.90;;;6.20;;
15624;SDS011;7912;51.376;6.126;2023-04-03T02:31:54;8.13;;;5.70;;
15624;SDS011;7912;51.376;6.126;2023-04-03T02:34:22;7.23;;;5.77;;
15624;SDS011;7912;51.376;6.126;2023-04-03T02:36:50;6.70;;;6.03;;
15624;SDS011;7912;51.376;6.126;2023-04-03T02:39:18;7.73;;;6.13;;
15624;SDS011;7912;51.376;6.126;2023-04-03T02:41:45;6.87;;;5.90;;
15624;SDS011;7912;51.376;6.126;2023-04-03T02:44:13;6.73;;;6.00;;
15624;SDS011;7912;51.376;6.126;2023-04-03T02:46:43;6.87;;;5.90;;
15624;SDS011;7912;51.376;6.126;2023-04-03T02:49:13;7.27;;;6.00;;
15624;SDS011;7912;51.376;6.126;2023-04-03T02:51:41;7.10;;;5.83;;
15624;SDS011;7912;51.376;6.126;2023-04-03T02:54:08;8.47;;;5.83;;
15624;SDS011;7912;51.376;6.126;2023-04-03T02:56:39;6.13;;;5.13;;
15624;SDS011;7912;51.376;6.126;2023-04-03T02:59:09;6.73;;;5.10;;
15624;SDS011;7912;51.376;6.126;2023-04-03T03:01:37;5.70;;;5.13;;
15624;SDS011;7912;51.376;6.126;2023-04-03T03:04:05;9.43;;;5.07;;
15624;SDS011;7912;51.376;6.126;2023-04-03T03:06:32;5.53;;;4.80;;
15624;SDS011;7912;51.376;6.126;2023-04-03T03:09:00;6.17;;;4.60;;
15624;SDS011;7912;51.376;6.126;2023-04-03T03:11:28;6.73;;;4.90;;
15624;SDS011;7912;51.376;6.126;2023-04-03T03:13:56;5.07;;;4.57;;
15624;SDS011;7912;51.376;6.126;2023-04-03T03:16:24;5.53;;;4.53;;
15624;SDS011;7912;51.376;6.126;2023-04-03T03:18:52;6.77;;;4.57;;
15624;SDS011;7912;51.376;6.126;2023-04-03T03:21:24;4.90;;;3.97;;
15624;SDS011;7912;51.376;6.126;2023-04-03T03:23:51;4.80;;;4.23;;
15624;SDS011;7912;51.376;6.126;2023-04-03T03:26:19;5.17;;;4.37;;
15624;SDS011;7912;51.376;6.126;2023-04-03T03:28:47;5.57;;;4.23;;
15624;SDS011;7912;51.376;6.126;2023-04-03T03:31:14;6.40;;;3.97;;
15624;SDS011;7912;51.376;6.126;2023-04-03T03:33:42;4.73;;;3.83;;
15624;SDS011;7912;51.376;6.126;2023-04-03T03:36:09;5.40;;;4.30;;
15624;SDS011;7912;51.376;6.126;2023-04-03T03:38:37;5.17;;;3.80;;
15624;SDS011;7912;51.376;6.126;2023-04-03T03:41:05;5.23;;;3.60;;
15624;SDS011;7912;51.376;6.126;2023-04-03T03:43:33;4.07;;;3.60;;
15624;SDS011;7912;51.376;6.126;2023-04-03T03:46:00;5.77;;;3.83;;
15624;SDS011;7912;51.376;6.126;2023-04-03T03:48:28;6.43;;;3.90;;
15624;SDS011;7912;51.376;6.126;2023-04-03T03:50:56;5.77;;;4.00;;
15624;SDS011;7912;51.376;6.126;2023-04-03T03:53:24;4.70;;;3.67;;
15624;SDS011;7912;51.376;6.126;2023-04-03T03:55:52;4.97;;;3.93;;
15624;SDS011;7912;51.376;6.126;2023-04-03T03:58:19;7.13;;;3.70;;
15624;SDS011;7912;51.376;6.126;2023-04-03T04:00:47;5.20;;;3.70;;
15624;SDS011;7912;51.376;6.126;2023-04-03T04:03:14;5.77;;;3.73;;
15624;SDS011;7912;51.376;6.126;2023-04-03T04:05:43;5.23;;;3.77;;
15624;SDS011;7912;51.376;6.126;2023-04-03T04:08:10;5.30;;;4.00;;
15624;SDS011;7912;51.376;6.126;2023-04-03T04:10:38;5.40;;;3.77;;
15624;SDS011;7912;51.376;6.126;2023-04-03T04:13:06;5.33;;;3.73;;
15624;SDS011;7912;51.376;6.126;2023-04-03T04:15:33;5.23;;;3.40;;
15624;SDS011;7912;51.376;6.126;2023-04-03T04:18:01;5.00;;;3.60;;
15624;SDS011;7912;51.376;6.126;2023-04-03T04:20:28;4.60;;;3.43;;
15624;SDS011;7912;51.376;6.126;2023-04-03T04:22:56;7.27;;;3.97;;
15624;SDS011;7912;51.376;6.126;2023-04-03T04:25:23;5.37;;;3.63;;
15624;SDS011;7912;51.376;6.126;2023-04-03T04:27:50;6.13;;;3.73;;
15624;SDS011;7912;51.376;6.126;2023-04-03T04:30:18;5.70;;;3.80;;
15624;SDS011;7912;51.376;6.126;2023-04-03T04:32:45;6.00;;;3.73;;
15624;SDS011;7912;51.376;6.126;2023-04-03T04:35:13;5.57;;;3.30;;
15624;SDS011;7912;51.376;6.126;2023-04-03T04:37:57;6.13;;;3.70;;
15624;SDS011;7912;51.376;6.126;2023-04-03T04:40:24;5.97;;;3.60;;
15624;SDS011;7912;51.376;6.126;2023-04-03T04:42:51;6.80;;;3.80;;
15624;SDS011;7912;51.376;6.126;2023-04-03T04:45:19;4.27;;;3.20;;
15624;SDS011;7912;51.376;6.126;2023-04-03T04:47:46;10.23;;;3.53;;
15624;SDS011;7912;51.376;6.126;2023-04-03T04:50:14;5.40;;;3.50;;
15624;SDS011;7912;51.376;6.126;2023-04-03T04:52:42;7.47;;;3.57;;
15624;SDS011;7912;51.376;6.126;2023-04-03T04:55:09;5.07;;;3.20;;
15624;SDS011;7912;51.376;6.126;2023-04-03T04:57:37;6.13;;;3.30;;
15624;SDS011;7912;51.376;6.126;2023-04-03T05:00:05;4.27;;;2.93;;
15624;SDS011;7912;51.376;6.126;2023-04-03T05:02:33;6.87;;;2.63;;
15624;SDS011;7912;51.376;6.126;2023-04-03T05:05:00;5.53;;;2.90;;
15624;SDS011;7912;51.376;6.126;2023-04-03T05:07:30;5.23;;;2.87;;
15624;SDS011;7912;51.376;6.126;2023-04-03T05:09:58;4.90;;;2.90;;
15624;SDS011;7912;51.376;6.126;2023-04-03T05:12:25;6.43;;;3.07;;
15624;SDS011;7912;51.376;6.126;2023-04-03T05:17:41;6.23;;;2.73;;
15624;SDS011;7912;51.376;6.126;2023-04-03T05:20:08;4.13;;;2.87;;
15624;SDS011;7912;51.376;6.126;2023-04-03T05:22:36;4.20;;;2.90;;
15624;SDS011;7912;51.376;6.126;2023-04-03T05:25:04;3.87;;;2.70;;
15624;SDS011;7912;51.376;6.126;2023-04-03T05:27:32;5.43;;;2.80;;
15624;SDS011;7912;51.376;6.126;2023-04-03T05:30:02;3.97;;;2.53;;
15624;SDS011;7912;51.376;6.126;2023-04-03T05:32:31;5.97;;;2.77;;
15624;SDS011;7912;51.376;6.126;2023-04-03T05:34:59;6.60;;;2.93;;
15624;SDS011;7912;51.376;6.126;2023-04-03T05:37:27;6.30;;;2.87;;
15624;SDS011;7912;51.376;6.126;2023-04-03T05:39:54;4.33;;;2.63;;
15624;SDS011;7912;51.376;6.126;2023-04-03T05:42:21;5.73;;;2.70;;
15624;SDS011;7912;51.376;6.126;2023-04-03T05:44:49;5.20;;;2.70;;
15624;SDS011;7912;51.376;6.126;2023-04-03T05:47:19;6.17;;;2.90;;
15624;SDS011;7912;51.376;6.126;2023-04-03T05:49:49;4.80;;;2.50;;
15624;SDS011;7912;51.376;6.126;2023-04-03T05:54:53;3.50;;;2.37;;
15624;SDS011;7912;51.376;6.126;2023-04-03T05:57:21;6.77;;;2.83;;
15624;SDS011;7912;51.376;6.126;2023-04-03T05:59:49;6.73;;;2.93;;
15624;SDS011;7912;51.376;6.126;2023-04-03T06:02:20;4.53;;;3.20;;
15624;SDS011;7912;51.376;6.126;2023-04-03T06:04:50;5.13;;;2.80;;
15624;SDS011;7912;51.376;6.126;2023-04-03T06:07:22;4.53;;;2.83;;
15624;SDS011;7912;51.376;6.126;2023-04-03T06:09:55;4.03;;;2.57;;
15624;SDS011;7912;51.376;6.126;2023-04-03T06:12:23;4.50;;;2.50;;
15624;SDS011;7912;51.376;6.126;2023-04-03T06:14:51;3.83;;;2.40;;
15624;SDS011;7912;51.376;6.126;2023-04-03T06:17:18;6.53;;;3.20;;
15624;SDS011;7912;51.376;6.126;2023-04-03T06:19:46;5.20;;;3.00;;
15624;SDS011;7912;51.376;6.126;2023-04-03T06:22:14;3.80;;;3.10;;
15624;SDS011;7912;51.376;6.126;2023-04-03T06:24:42;5.13;;;2.83;;
15624;SDS011;7912;51.376;6.126;2023-04-03T06:27:10;4.93;;;2.80;;
15624;SDS011;7912;51.376;6.126;2023-04-03T06:29:37;7.70;;;3.50;;
15624;SDS011;7912;51.376;6.126;2023-04-03T06:32:05;5.83;;;2.80;;
15624;SDS011;7912;51.376;6.126;2023-04-03T06:34:32;6.13;;;2.80;;
15624;SDS011;7912;51.376;6.126;2023-04-03T06:36:59;5.57;;;3.00;;
15624;SDS011;7912;51.376;6.126;2023-04-03T06:39:27;5.63;;;3.10;;
15624;SDS011;7912;51.376;6.126;2023-04-03T06:41:54;6.03;;;3.23;;
15624;SDS011;7912;51.376;6.126;2023-04-03T06:44:21;5.23;;;3.10;;
15624;SDS011;7912;51.376;6.126;2023-04-03T06:46:49;5.30;;;3.13;;
15624;SDS011;7912;51.376;6.126;2023-04-03T06:49:16;7.20;;;3.10;;
15624;SDS011;7912;51.376;6.126;2023-04-03T06:51:46;6.43;;;3.30;;
15624;SDS011;7912;51.376;6.126;2023-04-03T06:54:14;5.80;;;3.13;;
15624;SDS011;7912;51.376;6.126;2023-04-03T06:56:41;8.17;;;3.17;;
15624;SDS011;7912;51.376;6.126;2023-04-03T06:59:09;7.47;;;3.00;;
15624;SDS011;7912;51.376;6.126;2023-04-03T07:01:39;5.40;;;2.60;;
15624;SDS011;7912;51.376;6.126;2023-04-03T07:04:07;5.63;;;2.90;;
15624;SDS011;7912;51.376;6.126;2023-04-03T07:06:35;5.20;;;3.20;;
15624;SDS011;7912;51.376;6.126;2023-04-03T07:09:02;5.23;;;3.03;;
15624;SDS011;7912;51.376;6.126;2023-04-03T07:11:30;5.30;;;2.97;;
15624;SDS011;7912;51.376;6.126;2023-04-03T07:13:58;6.50;;;3.10;;
15624;SDS011;7912;51.376;6.126;2023-04-03T07:16:26;7.57;;;3.30;;
15624;SDS011;7912;51.376;6.126;2023-04-03T07:18:53;3.80;;;2.63;;
15624;SDS011;7912;51.376;6.126;2023-04-03T07:21:21;5.37;;;3.00;;
15624;SDS011;7912;51.376;6.126;2023-04-03T07:23:49;4.50;;;2.97;;
15624;SDS011;7912;51.376;6.126;2023-04-03T07:26:16;8.10;;;3.47;;
15624;SDS011;7912;51.376;6.126;2023-04-03T07:28:44;6.93;;;2.80;;
15624;SDS011;7912;51.376;6.126;2023-04-03T07:31:15;6.67;;;3.07;;
15624;SDS011;7912;51.376;6.126;2023-04-03T07:33:44;7.23;;;3.00;;
15624;SDS011;7912;51.376;6.126;2023-04-03T07:36:14;5.87;;;3.50;;
15624;SDS011;7912;51.376;6.126;2023-04-03T07:38:45;5.60;;;3.13;;
15624;SDS011;7912;51.376;6.126;2023-04-03T07:41:17;6.93;;;2.90;;
15624;SDS011;7912;51.376;6.126;2023-04-03T07:43:47;7.33;;;3.30;;
15624;SDS011;7912;51.376;6.126;2023-04-03T07:46:16;6.67;;;3.37;;
15624;SDS011;7912;51.376;6.126;2023-04-03T07:48:44;5.40;;;3.13;;
15624;SDS011;7912;51.376;6.126;2023-04-03T07:51:11;6.47;;;3.57;;
15624;SDS011;7912;51.376;6.126;2023-04-03T07:53:39;7.77;;;3.80;;
15624;SDS011;7912;51.376;6.126;2023-04-03T07:56:06;7.20;;;3.57;;
15624;SDS011;7912;51.376;6.126;2023-04-03T07:58:34;7.93;;;3.97;;
15624;SDS011;7912;51.376;6.126;2023-04-03T08:01:03;6.13;;;3.57;;
15624;SDS011;7912;51.376;6.126;2023-04-03T08:03:30;10.43;;;3.60;;
15624;SDS011;7912;51.376;6.126;2023-04-03T08:06:02;5.80;;;3.37;;
15624;SDS011;7912;51.376;6.126;2023-04-03T08:08:37;6.73;;;3.30;;
15624;SDS011;7912;51.376;6.126;2023-04-03T08:11:04;5.83;;;3.47;;
15624;SDS011;7912;51.376;6.126;2023-04-03T08:13:33;5.50;;;2.63;;
15624;SDS011;7912;51.376;6.126;2023-04-03T08:16:12;7.53;;;3.17;;
15624;SDS011;7912;51.376;6.126;2023-04-03T08:18:45;6.40;;;3.27;;
15624;SDS011;7912;51.376;6.126;2023-04-03T08:21:12;5.53;;;2.80;;
15624;SDS011;7912;51.376;6.126;2023-04-03T08:23:40;6.13;;;3.07;;
15624;SDS011;7912;51.376;6.126;2023-04-03T08:26:10;6.23;;;2.87;;
15624;SDS011;7912;51.376;6.126;2023-04-03T08:28:41;5.60;;;2.57;;
15624;SDS011;7912;51.376;6.126;2023-04-03T08:31:13;3.47;;;2.47;;
15624;SDS011;7912;51.376;6.126;2023-04-03T08:33:45;4.87;;;2.90;;
15624;SDS011;7912;51.376;6.126;2023-04-03T08:36:18;5.97;;;2.73;;
15624;SDS011;7912;51.376;6.126;2023-04-03T08:38:51;4.17;;;2.30;;
15624;SDS011;7912;51.376;6.126;2023-04-03T08:49:56;6.40;;;2.70;;
15624;SDS011;7912;51.376;6.126;2023-04-03T08:52:47;4.00;;;2.50;;
15624;SDS011;7912;51.376;6.126;2023-04-03T08:57:57;5.20;;;2.60;;
15624;SDS011;7912;51.376;6.126;2023-04-03T09:00:54;5.80;;;2.20;;
15624;SDS011;7912;51.376;6.126;2023-04-03T09:03:31;5.30;;;2.20;;
15624;SDS011;7912;51.376;6.126;2023-04-03T09:06:21;4.53;;;2.40;;
15624;SDS011;7912;51.376;6.126;2023-04-03T09:23:14;6.00;;;3.17;;
15624;SDS011;7912;51.376;6.126;2023-04-03T09:25:58;3.47;;;2.10;;
15624;SDS011;7912;51.376;6.126;2023-04-03T09:28:37;3.67;;;2.30;;
15624;SDS011;7912;51.376;6.126;2023-04-03T09:31:24;4.23;;;2.20;;
15624;SDS011;7912;51.376;6.126;2023-04-03T09:33:59;4.83;;;2.50;;
15624;SDS011;7912;51.376;6.126;2023-04-03T09:36:42;2.80;;;1.90;;
15624;SDS011;7912;51.376;6.126;2023-04-03T09:39:11;4.03;;;2.10;;
15624;SDS011;7912;51.376;6.126;2023-04-03T09:44:34;3.33;;;1.83;;
15624;SDS011;7912;51.376;6.126;2023-04-03T09:52:49;4.57;;;1.90;;
15624;SDS011;7912;51.376;6.126;2023-04-03T09:55:19;2.67;;;1.87;;
15624;SDS011;7912;51.376;6.126;2023-04-03T09:57:57;3.40;;;2.03;;
15624;SDS011;7912;51.376;6.126;2023-04-03T10:00:30;2.67;;;1.83;;
15624;SDS011;7912;51.376;6.126;2023-04-03T10:03:05;3.43;;;1.93;;
15624;SDS011;7912;51.376;6.126;2023-04-03T10:06:01;2.23;;;1.50;;
15624;SDS011;7912;51.376;6.126;2023-04-03T10:08:37;2.53;;;1.57;;
15624;SDS011;7912;51.376;6.126;2023-04-03T10:11:10;2.03;;;1.37;;
15624;SDS011;7912;51.376;6.126;2023-04-03T10:16:39;1.93;;;1.40;;
15624;SDS011;7912;51.376;6.126;2023-04-03T10:19:23;2.27;;;1.50;;
15624;SDS011;7912;51.376;6.126;2023-04-03T10:33:59;2.27;;;1.60;;
15624;SDS011;7912;51.376;6.126;2023-04-03T10:36:47;4.03;;;1.70;;
15624;SDS011;7912;51.376;6.126;2023-04-03T10:42:32;2.17;;;1.30;;
15624;SDS011;7912;51.376;6.126;2023-04-03T10:48:04;2.00;;;1.53;;
15624;SDS011;7912;51.376;6.126;2023-04-03T11:02:33;2.23;;;1.30;;
15624;SDS011;7912;51.376;6.126;2023-04-03T11:08:17;1.53;;;1.23;;
15624;SDS011;7912;51.376;6.126;2023-04-03T11:10:56;1.87;;;1.20;;
15624;SDS011;7912;51.376;6.126;2023-04-03T11:13:50;3.00;;;1.37;;
15624;SDS011;7912;51.376;6.126;2023-04-03T11:16:30;1.97;;;1.17;;
15624;SDS011;7912;51.376;6.126;2023-04-03T11:22:27;2.20;;;1.20;;
15624;SDS011;7912;51.376;6.126;2023-04-03T11:25:06;2.13;;;1.07;;
15624;SDS011;7912;51.376;6.126;2023-04-03T11:36:44;2.00;;;1.20;;
15624;SDS011;7912;51.376;6.126;2023-04-03T11:47:54;1.67;;;1.13;;
15624;SDS011;7912;51.376;6.126;2023-04-03T11:50:38;2.13;;;1.43;;
15624;SDS011;7912;51.376;6.126;2023-04-03T11:55:45;2.57;;;1.20;;
15624;SDS011;7912;51.376;6.126;2023-04-03T11:58:17;3.37;;;1.50;;
15624;SDS011;7912;51.376;6.126;2023-04-03T12:00:53;1.87;;;1.33;;
15624;SDS011;7912;51.376;6.126;2023-04-03T12:08:46;2.03;;;1.60;;
15624;SDS011;7912;51.376;6.126;2023-04-03T12:14:03;2.20;;;1.60;;
15624;SDS011;7912;51.376;6.126;2023-04-03T12:22:06;2.50;;;1.30;;
15624;SDS011;7912;51.376;6.126;2023-04-03T12:24:38;3.37;;;1.80;;
15624;SDS011;7912;51.376;6.126;2023-04-03T12:27:14;2.60;;;1.70;;
15624;SDS011;7912;51.376;6.126;2023-04-03T12:41:53;2.93;;;1.90;;
15624;SDS011;7912;51.376;6.126;2023-04-03T12:44:38;1.97;;;1.73;;
15624;SDS011;7912;51.376;6.126;2023-04-03T12:47:49;4.20;;;1.93;;
15624;SDS011;7912;51.376;6.126;2023-04-03T12:50:24;3.00;;;1.90;;
15624;SDS011;7912;51.376;6.126;2023-04-03T12:53:01;3.17;;;1.80;;
15624;SDS011;7912;51.376;6.126;2023-04-03T12:55:38;3.17;;;1.70;;
15624;SDS011;7912;51.376;6.126;2023-04-03T12:58:13;3.93;;;1.83;;
15624;SDS011;7912;51.376;6.126;2023-04-03T13:01:03;3.20;;;1.73;;
15624;SDS011;7912;51.376;6.126;2023-04-03T13:03:45;2.63;;;1.87;;
15624;SDS011;7912;51.376;6.126;2023-04-03T13:06:18;3.30;;;1.93;;
15624;SDS011;7912;51.376;6.126;2023-04-03T13:08:58;2.23;;;1.90;;
15624;SDS011;7912;51.376;6.126;2023-04-03T13:11:30;2.83;;;1.87;;
15624;SDS011;7912;51.376;6.126;2023-04-03T13:14:18;2.17;;;1.83;;
15624;SDS011;7912;51.376;6.126;2023-04-03T13:17:39;2.83;;;2.17;;
15624;SDS011;7912;51.376;6.126;2023-04-03T13:19:42;3.73;;;1.73;;
15624;SDS011;7912;51.376;6.126;2023-04-03T13:23:14;2.13;;;1.77;;
15624;SDS011;7912;51.376;6.126;2023-04-03T13:25:36;3.63;;;2.03;;
15624;SDS011;7912;51.376;6.126;2023-04-03T13:28:14;2.97;;;1.70;;
15624;SDS011;7912;51.376;6.126;2023-04-03T13:33:55;3.63;;;1.90;;
15624;SDS011;7912;51.376;6.126;2023-04-03T13:36:31;3.17;;;1.87;;
15624;SDS011;7912;51.376;6.126;2023-04-03T13:39:06;3.33;;;1.77;;
15624;SDS011;7912;51.376;6.126;2023-04-03T13:41:38;2.53;;;1.70;;
15624;SDS011;7912;51.376;6.126;2023-04-03T13:49:21;2.90;;;1.70;;
15624;SDS011;7912;51.376;6.126;2023-04-03T13:51:57;2.03;;;1.70;;
15624;SDS011;7912;51.376;6.126;2023-04-03T13:57:13;4.10;;;1.97;;
15624;SDS011;7912;51.376;6.126;2023-04-03T13:59:43;2.87;;;1.80;;
15624;SDS011;7912;51.376;6.126;2023-04-03T14:02:31;3.27;;;1.80;;
15624;SDS011;7912;51.376;6.126;2023-04-03T14:05:01;3.80;;;1.70;;
15624;SDS011;7912;51.376;6.126;2023-04-03T14:07:30;3.70;;;1.60;;
15624;SDS011;7912;51.376;6.126;2023-04-03T14:09:58;1.70;;;1.60;;
15624;SDS011;7912;51.376;6.126;2023-04-03T14:12:36;1.97;;;1.70;;
15624;SDS011;7912;51.376;6.126;2023-04-03T14:15:22;3.20;;;1.70;;
15624;SDS011;7912;51.376;6.126;2023-04-03T14:17:54;3.67;;;1.90;;
15624;SDS011;7912;51.376;6.126;2023-04-03T14:20:29;3.03;;;1.93;;
15624;SDS011;7912;51.376;6.126;2023-04-03T14:22:56;3.53;;;1.83;;
15624;SDS011;7912;51.376;6.126;2023-04-03T14:25:24;2.77;;;1.87;;
15624;SDS011;7912;51.376;6.126;2023-04-03T14:27:55;2.87;;;1.83;;
15624;SDS011;7912;51.376;6.126;2023-04-03T14:30:27;3.00;;;1.60;;
15624;SDS011;7912;51.376;6.126;2023-04-03T14:32:59;2.73;;;1.77;;
15624;SDS011;7912;51.376;6.126;2023-04-03T14:35:28;2.43;;;1.67;;
15624;SDS011;7912;51.376;6.126;2023-04-03T14:37:56;1.63;;;1.50;;
15624;SDS011;7912;51.376;6.126;2023-04-03T14:40:25;3.47;;;1.80;;
15624;SDS011;7912;51.376;6.126;2023-04-03T14:42:53;2.67;;;1.93;;
15624;SDS011;7912;51.376;6.126;2023-04-03T14:45:22;2.87;;;2.00;;
15624;SDS011;7912;51.376;6.126;2023-04-03T14:47:51;3.67;;;1.70;;
15624;SDS011;7912;51.376;6.126;2023-04-03T14:50:24;2.40;;;1.77;;
15624;SDS011;7912;51.376;6.126;2023-04-03T14:52:55;2.80;;;1.90;;
15624;SDS011;7912;51.376;6.126;2023-04-03T14:55:25;2.87;;;1.80;;
15624;SDS011;7912;51.376;6.126;2023-04-03T14:57:56;1.93;;;1.70;;
15624;SDS011;7912;51.376;6.126;2023-04-03T15:00:24;3.13;;;2.13;;
15624;SDS011;7912;51.376;6.126;2023-04-03T15:02:52;2.80;;;2.07;;
15624;SDS011;7912;51.376;6.126;2023-04-03T15:05:23;3.93;;;1.73;;
15624;SDS011;7912;51.376;6.126;2023-04-03T15:07:55;3.83;;;1.90;;
15624;SDS011;7912;51.376;6.126;2023-04-03T15:10:28;3.60;;;2.10;;
15624;SDS011;7912;51.376;6.126;2023-04-03T15:12:57;3.03;;;1.70;;
15624;SDS011;7912;51.376;6.126;2023-04-03T15:15:27;4.07;;;2.00;;
15624;SDS011;7912;51.376;6.126;2023-04-03T15:18:00;2.60;;;1.70;;
15624;SDS011;7912;51.376;6.126;2023-04-03T15:20:28;2.80;;;1.73;;
15624;SDS011;7912;51.376;6.126;2023-04-03T15:22:57;2.93;;;1.93;;
15624;SDS011;7912;51.376;6.126;2023-04-03T15:25:33;3.43;;;2.03;;
15624;SDS011;7912;51.376;6.126;2023-04-03T15:28:00;2.13;;;1.80;;
15624;SDS011;7912;51.376;6.126;2023-04-03T15:30:28;3.13;;;1.83;;
15624;SDS011;7912;51.376;6.126;2023-04-03T15:32:59;3.20;;;1.50;;
15624;SDS011;7912;51.376;6.126;2023-04-03T15:35:30;2.50;;;1.50;;
15624;SDS011;7912;51.376;6.126;2023-04-03T15:38:00;3.30;;;1.80;;
15624;SDS011;7912;51.376;6.126;2023-04-03T15:40:36;2.97;;;1.67;;
15624;SDS011;7912;51.376;6.126;2023-04-03T15:43:10;3.37;;;1.80;;
15624;SDS011;7912;51.376;6.126;2023-04-03T15:45:57;2.53;;;1.63;;
15624;SDS011;7912;51.376;6.126;2023-04-03T15:48:27;3.30;;;1.60;;
15624;SDS011;7912;51.376;6.126;2023-04-03T15:50:59;3.27;;;1.47;;
15624;SDS011;7912;51.376;6.126;2023-04-03T15:53:27;2.57;;;1.30;;
15624;SDS011;7912;51.376;6.126;2023-04-03T15:55:56;2.43;;;1.50;;
15624;SDS011;7912;51.376;6.126;2023-04-03T16:01:10;2.90;;;1.70;;
15624;SDS011;7912;51.376;6.126;2023-04-03T16:03:39;2.30;;;1.80;;
15624;SDS011;7912;51.376;6.126;2023-04-03T16:06:13;3.67;;;2.10;;
15624;SDS011;7912;51.376;6.126;2023-04-03T16:08:42;3.70;;;1.90;;
15624;SDS011;7912;51.376;6.126;2023-04-03T16:11:10;2.87;;;1.90;;
15624;SDS011;7912;51.376;6.126;2023-04-03T16:16:23;2.40;;;1.60;;
15624;SDS011;7912;51.376;6.126;2023-04-03T16:18:54;2.03;;;1.60;;
15624;SDS011;7912;51.376;6.126;2023-04-03T16:21:23;2.93;;;2.00;;
15624;SDS011;7912;51.376;6.126;2023-04-03T16:23:51;2.57;;;1.80;;
15624;SDS011;7912;51.376;6.126;2023-04-03T16:26:19;3.50;;;1.77;;
15624;SDS011;7912;51.376;6.126;2023-04-03T16:28:47;2.73;;;1.83;;
15624;SDS011;7912;51.376;6.126;2023-04-03T16:31:14;2.50;;;1.60;;
15624;SDS011;7912;51.376;6.126;2023-04-03T16:33:43;2.87;;;1.70;;
15624;SDS011;7912;51.376;6.126;2023-04-03T16:36:10;3.17;;;1.50;;
15624;SDS011;7912;51.376;6.126;2023-04-03T16:38:42;2.57;;;1.77;;
15624;SDS011;7912;51.376;6.126;2023-04-03T16:41:10;3.23;;;1.73;;
15624;SDS011;7912;51.376;6.126;2023-04-03T16:43:37;2.83;;;1.50;;
15624;SDS011;7912;51.376;6.126;2023-04-03T16:46:06;2.47;;;1.63;;
15624;SDS011;7912;51.376;6.126;2023-04-03T16:48:37;5.33;;;1.90;;
15624;SDS011;7912;51.376;6.126;2023-04-03T16:51:06;3.50;;;1.80;;
15624;SDS011;7912;51.376;6.126;2023-04-03T16:53:33;1.77;;;1.63;;
15624;SDS011;7912;51.376;6.126;2023-04-03T16:56:02;2.63;;;1.57;;
15624;SDS011;7912;51.376;6.126;2023-04-03T16:58:30;3.57;;;1.73;;
15624;SDS011;7912;51.376;6.126;2023-04-03T17:00:58;2.07;;;1.63;;
15624;SDS011;7912;51.376;6.126;2023-04-03T17:03:44;2.27;;;1.73;;
15624;SDS011;7912;51.376;6.126;2023-04-03T17:06:12;3.60;;;1.93;;
15624;SDS011;7912;51.376;6.126;2023-04-03T17:08:47;2.27;;;1.70;;
15624;SDS011;7912;51.376;6.126;2023-04-03T17:11:17;2.97;;;1.77;;
15624;SDS011;7912;51.376;6.126;2023-04-03T17:14:03;2.93;;;1.83;;
15624;SDS011;7912;51.376;6.126;2023-04-03T17:16:40;2.67;;;1.40;;
15624;SDS011;7912;51.376;6.126;2023-04-03T17:19:08;3.13;;;1.70;;
15624;SDS011;7912;51.376;6.126;2023-04-03T17:21:37;1.90;;;1.63;;
15624;SDS011;7912;51.376;6.126;2023-04-03T17:24:09;3.30;;;1.50;;
15624;SDS011;7912;51.376;6.126;2023-04-03T17:26:44;3.00;;;2.00;;
15624;SDS011;7912;51.376;6.126;2023-04-03T17:29:20;3.27;;;2.40;;
15624;SDS011;7912;51.376;6.126;2023-04-03T17:31:57;2.10;;;1.80;;
15624;SDS011;7912;51.376;6.126;2023-04-03T17:34:27;4.50;;;2.23;;
15624;SDS011;7912;51.376;6.126;2023-04-03T17:36:57;2.90;;;1.63;;
15624;SDS011;7912;51.376;6.126;2023-04-03T17:39:28;4.60;;;1.73;;
15624;SDS011;7912;51.376;6.126;2023-04-03T17:41:56;1.93;;;1.70;;
15624;SDS011;7912;51.376;6.126;2023-04-03T17:44:31;3.20;;;1.80;;
15624;SDS011;7912;51.376;6.126;2023-04-03T17:47:02;3.87;;;1.90;;
15624;SDS011;7912;51.376;6.126;2023-04-03T17:49:35;2.97;;;1.70;;
15624;SDS011;7912;51.376;6.126;2023-04-03T17:52:14;3.07;;;1.67;;
15624;SDS011;7912;51.376;6.126;2023-04-03T17:54:47;2.90;;;1.80;;
15624;SDS011;7912;51.376;6.126;2023-04-03T17:57:24;4.03;;;1.97;;